Attica, Ohio
Current Conditions -  °F | °C
As of 2:52 PM on Thursday 18 Dec 2014 (Local Time) from KMFD Reporting Station
Overcast Overcast  
Wind Chill: 19°   Ceiling: 1300
Heat Index: 27°   Visibility: 10mi
Dew Point: 22°   Wind: 7mph
Humidity: 81%   Direction: 250°WSW
Pressure: 30.16"   Gusts: NA
Location:  41.06°N, 82.89°W
Report Text: KMFD 181952Z 25006KT 10SM OVC013 M03/M06 A3016 RMK AO2 SLP229 T10281056
Loading
Personal Weather Stations






























Interactive Weather Map New forecast layout! Learn more

10-Day Weather Forecast

Advertisements
Track Severe Weather on mobile